sensor_id;sensor_type;location;lat;lon;timestamp;pressure;altitude;pressure_sealevel;temperature;humidity
74230;BME280;62589;12.568;99.958;2024-02-23T00:00:06;101060.34;;;32.56;56.05
74230;BME280;62589;12.568;99.958;2024-02-23T00:02:33;101056.44;;;32.60;55.87
74230;BME280;62589;12.568;99.958;2024-02-23T00:04:59;101061.09;;;32.53;55.51
74230;BME280;62589;12.568;99.958;2024-02-23T00:07:26;101073.53;;;32.62;55.57
74230;BME280;62589;12.568;99.958;2024-02-23T00:09:52;101074.34;;;32.63;55.53
74230;BME280;62589;12.568;99.958;2024-02-23T00:12:18;101078.78;;;32.71;54.92
74230;BME280;62589;12.568;99.958;2024-02-23T00:14:45;101071.72;;;32.77;55.07
74230;BME280;62589;12.568;99.958;2024-02-23T00:17:12;101075.34;;;32.81;54.74
74230;BME280;62589;12.568;99.958;2024-02-23T00:19:38;101080.56;;;32.86;54.67
74230;BME280;62589;12.568;99.958;2024-02-23T00:22:04;101079.84;;;32.93;54.42
74230;BME280;62589;12.568;99.958;2024-02-23T00:24:31;101084.69;;;32.99;54.22
74230;BME280;62589;12.568;99.958;2024-02-23T00:26:57;101086.72;;;33.06;54.58
74230;BME280;62589;12.568;99.958;2024-02-23T00:29:24;101084.41;;;33.11;53.70
74230;BME280;62589;12.568;99.958;2024-02-23T00:31:50;101086.38;;;33.11;53.20
74230;BME280;62589;12.568;99.958;2024-02-23T00:34:16;101090.81;;;33.16;52.71
74230;BME280;62589;12.568;99.958;2024-02-23T00:36:43;101095.97;;;33.17;52.46
74230;BME280;62589;12.568;99.958;2024-02-23T00:39:12;101096.38;;;33.16;53.19
74230;BME280;62589;12.568;99.958;2024-02-23T00:41:38;101094.75;;;33.15;52.81
74230;BME280;62589;12.568;99.958;2024-02-23T00:44:05;101097.69;;;33.29;52.80
74230;BME280;62589;12.568;99.958;2024-02-23T00:46:32;101108.53;;;33.37;52.62
74230;BME280;62589;12.568;99.958;2024-02-23T00:48:59;101108.22;;;33.46;51.73
74230;BME280;62589;12.568;99.958;2024-02-23T00:51:25;101109.03;;;33.50;51.73
74230;BME280;62589;12.568;99.958;2024-02-23T00:53:52;101101.56;;;33.61;51.96
74230;BME280;62589;12.568;99.958;2024-02-23T00:56:18;101113.94;;;33.67;51.47
74230;BME280;62589;12.568;99.958;2024-02-23T00:58:45;101123.22;;;33.78;50.72
74230;BME280;62589;12.568;99.958;2024-02-23T01:01:11;101120.88;;;33.84;51.00
74230;BME280;62589;12.568;99.958;2024-02-23T01:03:37;101130.06;;;33.92;50.94
74230;BME280;62589;12.568;99.958;2024-02-23T01:06:04;101126.50;;;33.95;50.43
74230;BME280;62589;12.568;99.958;2024-02-23T01:08:30;101131.34;;;34.01;50.00
74230;BME280;62589;12.568;99.958;2024-02-23T01:10:57;101140.13;;;34.10;49.43
74230;BME280;62589;12.568;99.958;2024-02-23T01:13:23;101139.75;;;34.12;49.24
74230;BME280;62589;12.568;99.958;2024-02-23T01:15:50;101141.34;;;34.13;48.97
74230;BME280;62589;12.568;99.958;2024-02-23T01:18:16;101138.97;;;34.15;48.83
74230;BME280;62589;12.568;99.958;2024-02-23T01:20:42;101142.56;;;34.16;48.91
74230;BME280;62589;12.568;99.958;2024-02-23T01:23:09;101151.84;;;34.30;48.50
74230;BME280;62589;12.568;99.958;2024-02-23T01:25:36;101151.88;;;34.37;48.00
74230;BME280;62589;12.568;99.958;2024-02-23T01:28:05;101155.88;;;34.40;48.15
74230;BME280;62589;12.568;99.958;2024-02-23T01:30:31;101157.06;;;34.39;47.91
74230;BME280;62589;12.568;99.958;2024-02-23T01:32:58;101159.94;;;34.50;47.46
74230;BME280;62589;12.568;99.958;2024-02-23T01:35:24;101153.53;;;34.53;47.11
74230;BME280;62589;12.568;99.958;2024-02-23T01:37:51;101162.38;;;34.62;46.97
74230;BME280;62589;12.568;99.958;2024-02-23T01:40:17;101162.41;;;34.76;47.25
74230;BME280;62589;12.568;99.958;2024-02-23T01:42:44;101169.56;;;34.66;47.25
74230;BME280;62589;12.568;99.958;2024-02-23T01:45:10;101180.31;;;34.71;46.68
74230;BME280;62589;12.568;99.958;2024-02-23T01:47:36;101184.84;;;34.90;46.62
74230;BME280;62589;12.568;99.958;2024-02-23T01:50:04;101182.44;;;34.89;45.98
74230;BME280;62589;12.568;99.958;2024-02-23T01:52:31;101184.03;;;34.97;46.31
74230;BME280;62589;12.568;99.958;2024-02-23T01:54:58;101191.25;;;35.01;45.95
74230;BME280;62589;12.568;99.958;2024-02-23T01:57:27;101200.84;;;35.11;46.02
74230;BME280;62589;12.568;99.958;2024-02-23T01:59:53;101200.41;;;35.02;45.64
74230;BME280;62589;12.568;99.958;2024-02-23T02:02:21;101192.47;;;35.07;45.67
74230;BME280;62589;12.568;99.958;2024-02-23T02:04:47;101205.28;;;35.26;45.54
74230;BME280;62589;12.568;99.958;2024-02-23T02:07:14;101196.94;;;35.37;44.88
74230;BME280;62589;12.568;99.958;2024-02-23T02:09:40;101193.00;;;35.52;45.26
74230;BME280;62589;12.568;99.958;2024-02-23T02:12:07;101201.78;;;35.65;44.37
74230;BME280;62589;12.568;99.958;2024-02-23T02:14:33;101190.63;;;35.79;44.58
74230;BME280;62589;12.568;99.958;2024-02-23T02:17:00;101197.81;;;35.76;44.11
74230;BME280;62589;12.568;99.958;2024-02-23T02:19:27;101193.03;;;35.77;43.96
74230;BME280;62589;12.568;99.958;2024-02-23T02:21:53;101196.22;;;35.90;43.86
74230;BME280;62589;12.568;99.958;2024-02-23T02:24:20;101201.81;;;36.04;44.02
74230;BME280;62589;12.568;99.958;2024-02-23T02:26:46;101212.19;;;36.10;43.67
74230;BME280;62589;12.568;99.958;2024-02-23T02:29:16;101198.59;;;36.16;43.67
74230;BME280;62589;12.568;99.958;2024-02-23T02:31:42;101204.59;;;36.32;44.16
74230;BME280;62589;12.568;99.958;2024-02-23T02:34:09;101197.75;;;36.44;43.66
74230;BME280;62589;12.568;99.958;2024-02-23T02:36:38;101204.94;;;36.48;42.71
74230;BME280;62589;12.568;99.958;2024-02-23T02:39:05;101202.94;;;36.53;42.68
74230;BME280;62589;12.568;99.958;2024-02-23T02:41:33;101198.91;;;36.64;42.53
74230;BME280;62589;12.568;99.958;2024-02-23T02:43:59;101199.28;;;36.70;42.14
74230;BME280;62589;12.568;99.958;2024-02-23T02:46:25;101205.69;;;36.63;42.36
74230;BME280;62589;12.568;99.958;2024-02-23T02:48:52;101200.09;;;36.77;42.63
74230;BME280;62589;12.568;99.958;2024-02-23T02:51:18;101200.84;;;36.89;42.02
74230;BME280;62589;12.568;99.958;2024-02-23T02:53:45;101205.22;;;36.90;41.70
74230;BME280;62589;12.568;99.958;2024-02-23T02:56:11;101210.81;;;36.93;41.63
74230;BME280;62589;12.568;99.958;2024-02-23T02:58:37;101204.75;;;37.05;41.53
74230;BME280;62589;12.568;99.958;2024-02-23T03:01:04;101213.13;;;37.09;41.25
74230;BME280;62589;12.568;99.958;2024-02-23T03:03:30;101206.44;;;36.92;40.73
74230;BME280;62589;12.568;99.958;2024-02-23T03:05:57;101213.19;;;36.98;40.87
74230;BME280;62589;12.568;99.958;2024-02-23T03:08:23;101209.56;;;37.01;41.25
74230;BME280;62589;12.568;99.958;2024-02-23T03:10:49;101211.59;;;36.97;41.33
74230;BME280;62589;12.568;99.958;2024-02-23T03:13:16;101206.44;;;36.89;41.44
74230;BME280;62589;12.568;99.958;2024-02-23T03:15:42;101206.84;;;36.83;41.42
74230;BME280;62589;12.568;99.958;2024-02-23T03:18:09;101196.78;;;37.00;40.73
74230;BME280;62589;12.568;99.958;2024-02-23T03:20:35;101196.72;;;37.11;40.62
74230;BME280;62589;12.568;99.958;2024-02-23T03:23:02;101201.84;;;37.27;41.00
74230;BME280;62589;12.568;99.958;2024-02-23T03:25:29;101203.47;;;37.28;39.30
74230;BME280;62589;12.568;99.958;2024-02-23T03:27:56;101200.66;;;37.24;39.78
74230;BME280;62589;12.568;99.958;2024-02-23T03:30:22;101195.72;;;37.46;41.03
74230;BME280;62589;12.568;99.958;2024-02-23T03:32:48;101198.81;;;37.66;40.72
74230;BME280;62589;12.568;99.958;2024-02-23T03:35:15;101198.78;;;37.73;41.09
74230;BME280;62589;12.568;99.958;2024-02-23T03:37:41;101200.25;;;37.84;42.51
74230;BME280;62589;12.568;99.958;2024-02-23T03:40:08;101196.72;;;37.80;43.18
74230;BME280;62589;12.568;99.958;2024-02-23T03:42:36;101184.34;;;37.74;43.04
74230;BME280;62589;12.568;99.958;2024-02-23T03:45:03;101182.69;;;37.80;43.06
74230;BME280;62589;12.568;99.958;2024-02-23T03:47:30;101177.41;;;37.90;43.25
74230;BME280;62589;12.568;99.958;2024-02-23T03:49:56;101169.75;;;37.94;43.41
74230;BME280;62589;12.568;99.958;2024-02-23T03:52:23;101170.19;;;37.89;43.70
74230;BME280;62589;12.568;99.958;2024-02-23T03:54:49;101168.16;;;37.93;43.96
74230;BME280;62589;12.568;99.958;2024-02-23T03:57:17;101171.19;;;37.64;43.60
74230;BME280;62589;12.568;99.958;2024-02-23T03:59:54;101161.44;;;37.83;43.13
74230;BME280;62589;12.568;99.958;2024-02-23T04:02:20;101160.97;;;37.92;43.33
74230;BME280;62589;12.568;99.958;2024-02-23T04:04:48;101155.34;;;37.92;43.62
74230;BME280;62589;12.568;99.958;2024-02-23T04:07:14;101155.41;;;37.84;43.36
74230;BME280;62589;12.568;99.958;2024-02-23T04:09:41;101157.34;;;37.95;43.37
74230;BME280;62589;12.568;99.958;2024-02-23T04:12:07;101156.19;;;37.89;43.58
74230;BME280;62589;12.568;99.958;2024-02-23T04:14:34;101146.16;;;37.91;42.80
74230;BME280;62589;12.568;99.958;2024-02-23T04:17:03;101148.97;;;37.88;43.47
74230;BME280;62589;12.568;99.958;2024-02-23T04:19:29;101140.94;;;37.93;43.39
74230;BME280;62589;12.568;99.958;2024-02-23T04:21:56;101140.91;;;37.97;43.61
74230;BME280;62589;12.568;99.958;2024-02-23T04:24:22;101132.06;;;37.98;43.25
74230;BME280;62589;12.568;99.958;2024-02-23T04:26:48;101124.84;;;38.01;42.24
74230;BME280;62589;12.568;99.958;2024-02-23T04:29:15;101124.22;;;37.82;42.65
74230;BME280;62589;12.568;99.958;2024-02-23T04:31:41;101111.94;;;37.69;42.90
74230;BME280;62589;12.568;99.958;2024-02-23T04:34:08;101122.03;;;37.56;42.84
74230;BME280;62589;12.568;99.958;2024-02-23T04:36:34;101108.06;;;37.53;43.10
74230;BME280;62589;12.568;99.958;2024-02-23T04:39:00;101112.50;;;37.46;44.17
74230;BME280;62589;12.568;99.958;2024-02-23T04:41:27;101108.25;;;37.28;43.07
74230;BME280;62589;12.568;99.958;2024-02-23T04:43:53;101102.13;;;37.43;44.73
74230;BME280;62589;12.568;99.958;2024-02-23T04:46:26;101099.25;;;37.54;44.75
74230;BME280;62589;12.568;99.958;2024-02-23T04:48:53;101107.16;;;37.63;45.37
74230;BME280;62589;12.568;99.958;2024-02-23T04:51:19;101106.75;;;37.64;45.20
74230;BME280;62589;12.568;99.958;2024-02-23T04:53:48;101097.53;;;37.64;44.60
74230;BME280;62589;12.568;99.958;2024-02-23T04:56:15;101097.53;;;37.67;45.69
74230;BME280;62589;12.568;99.958;2024-02-23T04:58:42;101092.22;;;37.80;45.24
74230;BME280;62589;12.568;99.958;2024-02-23T05:01:09;101089.63;;;37.55;46.63
74230;BME280;62589;12.568;99.958;2024-02-23T05:03:36;101084.75;;;37.66;45.37
74230;BME280;62589;12.568;99.958;2024-02-23T05:06:04;101080.50;;;37.44;45.46
74230;BME280;62589;12.568;99.958;2024-02-23T05:08:30;101077.28;;;37.49;44.63
74230;BME280;62589;12.568;99.958;2024-02-23T05:10:57;101076.50;;;37.45;44.94
74230;BME280;62589;12.568;99.958;2024-02-23T05:13:24;101068.19;;;37.34;45.32
74230;BME280;62589;12.568;99.958;2024-02-23T05:15:50;101075.75;;;37.41;44.88
74230;BME280;62589;12.568;99.958;2024-02-23T05:18:17;101064.59;;;37.34;45.04
74230;BME280;62589;12.568;99.958;2024-02-23T05:20:43;101057.47;;;37.26;45.92
74230;BME280;62589;12.568;99.958;2024-02-23T05:23:10;101053.06;;;37.25;45.90
74230;BME280;62589;12.568;99.958;2024-02-23T05:25:36;101059.38;;;37.36;46.21
74230;BME280;62589;12.568;99.958;2024-02-23T05:28:02;101041.41;;;37.33;45.70
74230;BME280;62589;12.568;99.958;2024-02-23T05:30:29;101048.28;;;37.22;43.86
74230;BME280;62589;12.568;99.958;2024-02-23T05:32:57;101042.34;;;37.20;43.44
74230;BME280;62589;12.568;99.958;2024-02-23T05:35:29;101036.66;;;37.27;43.07
74230;BME280;62589;12.568;99.958;2024-02-23T05:37:56;101029.84;;;37.28;44.57
74230;BME280;62589;12.568;99.958;2024-02-23T05:40:22;101037.88;;;37.26;44.20
74230;BME280;62589;12.568;99.958;2024-02-23T05:42:48;101029.38;;;37.36;42.61
74230;BME280;62589;12.568;99.958;2024-02-23T05:45:15;101024.69;;;37.23;43.77
74230;BME280;62589;12.568;99.958;2024-02-23T05:47:41;101029.06;;;37.27;43.38
74230;BME280;62589;12.568;99.958;2024-02-23T05:50:08;101016.63;;;37.32;44.26
74230;BME280;62589;12.568;99.958;2024-02-23T05:52:35;101016.63;;;37.32;43.09
74230;BME280;62589;12.568;99.958;2024-02-23T05:55:03;101013.44;;;37.30;42.68
74230;BME280;62589;12.568;99.958;2024-02-23T05:57:30;101009.03;;;37.29;42.89
74230;BME280;62589;12.568;99.958;2024-02-23T05:59:56;101002.22;;;37.30;40.90
74230;BME280;62589;12.568;99.958;2024-02-23T06:02:23;100999.09;;;37.21;42.20
74230;BME280;62589;12.568;99.958;2024-02-23T06:04:50;100997.06;;;37.25;42.11
74230;BME280;62589;12.568;99.958;2024-02-23T06:07:16;100997.75;;;36.88;43.50
74230;BME280;62589;12.568;99.958;2024-02-23T06:09:43;100992.69;;;37.24;43.51
74230;BME280;62589;12.568;99.958;2024-02-23T06:12:10;100991.78;;;37.37;43.13
74230;BME280;62589;12.568;99.958;2024-02-23T06:14:36;100995.88;;;37.26;43.32
74230;BME280;62589;12.568;99.958;2024-02-23T06:17:03;100976.97;;;37.37;42.85
74230;BME280;62589;12.568;99.958;2024-02-23T06:19:29;100976.59;;;37.35;42.35
74230;BME280;62589;12.568;99.958;2024-02-23T06:21:56;100968.75;;;37.15;43.35
74230;BME280;62589;12.568;99.958;2024-02-23T06:24:22;100963.78;;;37.34;44.57
74230;BME280;62589;12.568;99.958;2024-02-23T06:26:49;100964.19;;;37.36;44.39
74230;BME280;62589;12.568;99.958;2024-02-23T06:29:17;100963.09;;;37.23;43.83
74230;BME280;62589;12.568;99.958;2024-02-23T06:31:43;100962.13;;;37.40;44.43
74230;BME280;62589;12.568;99.958;2024-02-23T06:34:17;100955.00;;;37.32;44.30
74230;BME280;62589;12.568;99.958;2024-02-23T06:36:43;100954.69;;;37.23;46.43
74230;BME280;62589;12.568;99.958;2024-02-23T06:39:10;100956.00;;;37.07;46.83
74230;BME280;62589;12.568;99.958;2024-02-23T06:41:38;100937.88;;;37.23;47.49
74230;BME280;62589;12.568;99.958;2024-02-23T06:44:07;100945.59;;;37.11;46.18
74230;BME280;62589;12.568;99.958;2024-02-23T06:46:34;100947.09;;;36.78;46.10
74230;BME280;62589;12.568;99.958;2024-02-23T06:49:00;100943.00;;;36.87;45.17
74230;BME280;62589;12.568;99.958;2024-02-23T06:51:26;100932.75;;;36.66;47.28
74230;BME280;62589;12.568;99.958;2024-02-23T06:53:53;100950.91;;;36.40;47.17
74230;BME280;62589;12.568;99.958;2024-02-23T06:56:19;100929.69;;;36.46;48.43
74230;BME280;62589;12.568;99.958;2024-02-23T06:58:46;100936.44;;;36.52;48.27
74230;BME280;62589;12.568;99.958;2024-02-23T07:01:12;100932.22;;;36.85;48.51
74230;BME280;62589;12.568;99.958;2024-02-23T07:03:38;100917.16;;;36.65;46.86
74230;BME280;62589;12.568;99.958;2024-02-23T07:06:07;100929.50;;;36.78;48.17
74230;BME280;62589;12.568;99.958;2024-02-23T07:08:36;100912.22;;;36.87;47.33
74230;BME280;62589;12.568;99.958;2024-02-23T07:11:02;100914.53;;;36.43;47.42
74230;BME280;62589;12.568;99.958;2024-02-23T07:13:29;100905.94;;;36.68;47.25
74230;BME280;62589;12.568;99.958;2024-02-23T07:15:56;100894.75;;;36.75;46.28
74230;BME280;62589;12.568;99.958;2024-02-23T07:18:23;100901.16;;;36.72;44.55
74230;BME280;62589;12.568;99.958;2024-02-23T07:20:51;100897.94;;;36.70;46.85
74230;BME280;62589;12.568;99.958;2024-02-23T07:23:17;100889.94;;;36.76;46.59
74230;BME280;62589;12.568;99.958;2024-02-23T07:25:43;100891.59;;;36.66;47.20
74230;BME280;62589;12.568;99.958;2024-02-23T07:28:10;100878.78;;;36.72;47.71
74230;BME280;62589;12.568;99.958;2024-02-23T07:30:36;100882.41;;;36.62;48.00
74230;BME280;62589;12.568;99.958;2024-02-23T07:33:02;100877.31;;;36.54;47.92
74230;BME280;62589;12.568;99.958;2024-02-23T07:35:31;100898.28;;;36.17;49.38
74230;BME280;62589;12.568;99.958;2024-02-23T07:37:57;100875.91;;;36.24;50.00
74230;BME280;62589;12.568;99.958;2024-02-23T07:40:23;100873.31;;;36.55;49.12
74230;BME280;62589;12.568;99.958;2024-02-23T07:42:50;100863.94;;;36.20;49.66
74230;BME280;62589;12.568;99.958;2024-02-23T07:45:16;100874.28;;;36.30;49.47
74230;BME280;62589;12.568;99.958;2024-02-23T07:47:43;100866.78;;;36.17;49.36
74230;BME280;62589;12.568;99.958;2024-02-23T07:50:09;100858.34;;;36.20;49.47
74230;BME280;62589;12.568;99.958;2024-02-23T07:52:35;100863.19;;;36.16;50.08
74230;BME280;62589;12.568;99.958;2024-02-23T07:55:02;100850.34;;;36.22;49.81
74230;BME280;62589;12.568;99.958;2024-02-23T07:57:30;100846.31;;;36.30;48.13
74230;BME280;62589;12.568;99.958;2024-02-23T07:59:57;100839.31;;;36.01;48.96
74230;BME280;62589;12.568;99.958;2024-02-23T08:02:24;100850.09;;;35.99;48.50
74230;BME280;62589;12.568;99.958;2024-02-23T08:04:50;100833.03;;;35.75;49.09
74230;BME280;62589;12.568;99.958;2024-02-23T08:07:18;100823.75;;;36.00;49.32
74230;BME280;62589;12.568;99.958;2024-02-23T08:09:44;100833.00;;;35.86;49.78
74230;BME280;62589;12.568;99.958;2024-02-23T08:12:11;100819.84;;;35.83;49.21
74230;BME280;62589;12.568;99.958;2024-02-23T08:14:39;100820.22;;;35.89;49.69
74230;BME280;62589;12.568;99.958;2024-02-23T08:17:06;100827.69;;;36.06;49.93
74230;BME280;62589;12.568;99.958;2024-02-23T08:19:33;100821.19;;;36.23;49.11
74230;BME280;62589;12.568;99.958;2024-02-23T08:21:59;100809.19;;;36.30;48.83
74230;BME280;62589;12.568;99.958;2024-02-23T08:24:25;100804.19;;;36.00;48.88
74230;BME280;62589;12.568;99.958;2024-02-23T08:26:52;100819.41;;;35.95;48.44
74230;BME280;62589;12.568;99.958;2024-02-23T08:29:19;100809.31;;;36.08;49.04
74230;BME280;62589;12.568;99.958;2024-02-23T08:31:45;100815.28;;;36.10;49.73
74230;BME280;62589;12.568;99.958;2024-02-23T08:34:12;100808.38;;;36.33;49.55
74230;BME280;62589;12.568;99.958;2024-02-23T08:36:38;100820.81;;;36.25;50.35
74230;BME280;62589;12.568;99.958;2024-02-23T08:39:04;100811.34;;;36.01;50.94
74230;BME280;62589;12.568;99.958;2024-02-23T08:41:31;100815.38;;;35.96;52.62
74230;BME280;62589;12.568;99.958;2024-02-23T08:43:57;100798.53;;;36.07;51.70
74230;BME280;62589;12.568;99.958;2024-02-23T08:46:23;100800.66;;;35.89;52.19
74230;BME280;62589;12.568;99.958;2024-02-23T08:48:50;100795.50;;;35.87;50.63
74230;BME280;62589;12.568;99.958;2024-02-23T08:51:16;100799.91;;;35.81;52.41
74230;BME280;62589;12.568;99.958;2024-02-23T08:53:42;100799.50;;;35.75;52.83
74230;BME280;62589;12.568;99.958;2024-02-23T08:56:09;100795.88;;;35.93;52.95
74230;BME280;62589;12.568;99.958;2024-02-23T08:58:35;100795.09;;;35.85;52.51
74230;BME280;62589;12.568;99.958;2024-02-23T09:01:01;100797.91;;;35.85;52.14
74230;BME280;62589;12.568;99.958;2024-02-23T09:03:30;100794.06;;;35.54;52.95
74230;BME280;62589;12.568;99.958;2024-02-23T09:05:57;100791.69;;;35.49;52.63
74230;BME280;62589;12.568;99.958;2024-02-23T09:08:23;100795.19;;;35.64;51.77
74230;BME280;62589;12.568;99.958;2024-02-23T09:10:50;100788.44;;;35.58;52.55
74230;BME280;62589;12.568;99.958;2024-02-23T09:13:16;100789.72;;;35.39;52.63
74230;BME280;62589;12.568;99.958;2024-02-23T09:15:42;100794.09;;;35.47;52.37
74230;BME280;62589;12.568;99.958;2024-02-23T09:18:09;100797.75;;;35.30;52.36
74230;BME280;62589;12.568;99.958;2024-02-23T09:20:35;100795.69;;;35.48;50.82
74230;BME280;62589;12.568;99.958;2024-02-23T09:23:01;100789.22;;;35.65;50.17
74230;BME280;62589;12.568;99.958;2024-02-23T09:25:28;100791.56;;;35.70;49.32
74230;BME280;62589;12.568;99.958;2024-02-23T09:27:58;100792.47;;;35.53;50.47
74230;BME280;62589;12.568;99.958;2024-02-23T09:30:24;100792.03;;;35.55;50.78
74230;BME280;62589;12.568;99.958;2024-02-23T09:32:50;100790.88;;;35.52;50.97
74230;BME280;62589;12.568;99.958;2024-02-23T09:35:23;100809.25;;;35.42;50.25
74230;BME280;62589;12.568;99.958;2024-02-23T09:37:49;100796.56;;;35.31;50.13
74230;BME280;62589;12.568;99.958;2024-02-23T09:40:16;100786.94;;;35.39;49.68
74230;BME280;62589;12.568;99.958;2024-02-23T09:42:42;100794.91;;;35.40;50.95
74230;BME280;62589;12.568;99.958;2024-02-23T09:45:11;100803.28;;;35.37;52.04
74230;BME280;62589;12.568;99.958;2024-02-23T09:47:38;100794.09;;;35.47;52.02
74230;BME280;62589;12.568;99.958;2024-02-23T09:50:05;100799.34;;;35.31;51.92
74230;BME280;62589;12.568;99.958;2024-02-23T09:52:32;100803.72;;;35.25;51.53
74230;BME280;62589;12.568;99.958;2024-02-23T09:54:59;100804.53;;;35.22;51.71
74230;BME280;62589;12.568;99.958;2024-02-23T09:57:25;100802.94;;;35.21;51.56
74230;BME280;62589;12.568;99.958;2024-02-23T09:59:52;100811.72;;;35.30;50.89
74230;BME280;62589;12.568;99.958;2024-02-23T10:02:19;100809.38;;;34.93;51.43
74230;BME280;62589;12.568;99.958;2024-02-23T10:04:47;100798.63;;;34.98;51.99
74230;BME280;62589;12.568;99.958;2024-02-23T10:07:17;100808.97;;;35.01;52.60
74230;BME280;62589;12.568;99.958;2024-02-23T10:09:43;100808.53;;;35.13;52.24
74230;BME280;62589;12.568;99.958;2024-02-23T10:12:10;100802.19;;;34.99;52.44
74230;BME280;62589;12.568;99.958;2024-02-23T10:14:36;100801.44;;;34.91;52.55
74230;BME280;62589;12.568;99.958;2024-02-23T10:17:02;100806.97;;;35.02;52.57
74230;BME280;62589;12.568;99.958;2024-02-23T10:19:29;100807.72;;;35.17;51.68
74230;BME280;62589;12.568;99.958;2024-02-23T10:21:56;100815.38;;;34.88;51.87
74230;BME280;62589;12.568;99.958;2024-02-23T10:24:24;100810.97;;;35.08;51.35
74230;BME280;62589;12.568;99.958;2024-02-23T10:26:53;100815.78;;;34.86;52.15
74230;BME280;62589;12.568;99.958;2024-02-23T10:29:20;100813.00;;;34.90;52.38
74230;BME280;62589;12.568;99.958;2024-02-23T10:31:47;100818.19;;;34.91;52.13
74230;BME280;62589;12.568;99.958;2024-02-23T10:34:19;100818.56;;;34.79;52.63
74230;BME280;62589;12.568;99.958;2024-02-23T10:36:46;100822.53;;;34.74;52.53
74230;BME280;62589;12.568;99.958;2024-02-23T10:39:17;100817.38;;;34.87;52.25
74230;BME280;62589;12.568;99.958;2024-02-23T10:41:57;100817.78;;;34.61;52.22
74230;BME280;62589;12.568;99.958;2024-02-23T10:44:28;100818.53;;;34.72;52.23
74230;BME280;62589;12.568;99.958;2024-02-23T10:46:55;100813.78;;;34.79;51.96
74230;BME280;62589;12.568;99.958;2024-02-23T10:49:23;100813.38;;;34.77;51.80
74230;BME280;62589;12.568;99.958;2024-02-23T10:51:54;100817.38;;;34.80;51.85
74230;BME280;62589;12.568;99.958;2024-02-23T10:54:20;100818.97;;;34.81;51.51
74230;BME280;62589;12.568;99.958;2024-02-23T10:56:49;100817.78;;;34.89;51.95
74230;BME280;62589;12.568;99.958;2024-02-23T10:59:16;100808.63;;;34.78;52.52
74230;BME280;62589;12.568;99.958;2024-02-23T11:01:52;100818.97;;;34.70;52.92
74230;BME280;62589;12.568;99.958;2024-02-23T11:04:20;100814.97;;;34.75;52.85
74230;BME280;62589;12.568;99.958;2024-02-23T11:06:56;100821.72;;;34.74;53.44
74230;BME280;62589;12.568;99.958;2024-02-23T11:09:31;100821.38;;;34.79;52.85
74230;BME280;62589;12.568;99.958;2024-02-23T11:12:03;100824.53;;;34.77;52.17
74230;BME280;62589;12.568;99.958;2024-02-23T11:14:37;100832.53;;;34.90;51.95
74230;BME280;62589;12.568;99.958;2024-02-23T11:17:04;100838.91;;;34.90;51.49
74230;BME280;62589;12.568;99.958;2024-02-23T11:19:37;100846.06;;;34.91;51.13
74230;BME280;62589;12.568;99.958;2024-02-23T11:22:10;100838.09;;;34.86;51.13
74230;BME280;62589;12.568;99.958;2024-02-23T11:24:42;100834.13;;;34.69;51.37
74230;BME280;62589;12.568;99.958;2024-02-23T11:27:15;100838.50;;;34.67;50.85
74230;BME280;62589;12.568;99.958;2024-02-23T11:29:45;100843.25;;;34.73;50.81
74230;BME280;62589;12.568;99.958;2024-02-23T11:32:18;100844.44;;;34.76;50.84
74230;BME280;62589;12.568;99.958;2024-02-23T11:34:57;100845.28;;;34.80;50.49
74230;BME280;62589;12.568;99.958;2024-02-23T11:37:23;100861.56;;;34.74;50.62
74230;BME280;62589;12.568;99.958;2024-02-23T11:39:50;100863.56;;;34.74;50.69
74230;BME280;62589;12.568;99.958;2024-02-23T11:42:18;100858.00;;;34.74;50.45
74230;BME280;62589;12.568;99.958;2024-02-23T11:44:44;100851.63;;;34.66;50.66
74230;BME280;62589;12.568;99.958;2024-02-23T11:47:10;100858.00;;;34.63;50.75
74230;BME280;62589;12.568;99.958;2024-02-23T11:49:37;100860.00;;;34.77;50.45
74230;BME280;62589;12.568;99.958;2024-02-23T11:52:03;100862.81;;;34.84;50.47
74230;BME280;62589;12.568;99.958;2024-02-23T11:54:30;100868.78;;;34.86;50.12
74230;BME280;62589;12.568;99.958;2024-02-23T11:56:57;100872.75;;;34.92;49.80
74230;BME280;62589;12.568;99.958;2024-02-23T11:59:23;100870.38;;;34.87;49.58
74230;BME280;62589;12.568;99.958;2024-02-23T12:01:51;100873.53;;;34.93;49.33
74230;BME280;62589;12.568;99.958;2024-02-23T12:04:17;100882.75;;;34.86;49.63
74230;BME280;62589;12.568;99.958;2024-02-23T12:06:43;100887.91;;;34.91;49.37
74230;BME280;62589;12.568;99.958;2024-02-23T12:09:12;100892.28;;;34.92;49.44
74230;BME280;62589;12.568;99.958;2024-02-23T12:11:39;100889.88;;;34.94;49.44
74230;BME280;62589;12.568;99.958;2024-02-23T12:14:05;100891.88;;;34.94;49.31
74230;BME280;62589;12.568;99.958;2024-02-23T12:16:35;100887.91;;;34.95;49.29
74230;BME280;62589;12.568;99.958;2024-02-23T12:19:02;100891.50;;;34.88;49.47
74230;BME280;62589;12.568;99.958;2024-02-23T12:21:34;100897.84;;;34.96;49.46
74230;BME280;62589;12.568;99.958;2024-02-23T12:24:07;100905.03;;;34.93;49.30
74230;BME280;62589;12.568;99.958;2024-02-23T12:26:33;100901.88;;;34.88;49.58
74230;BME280;62589;12.568;99.958;2024-02-23T12:29:03;100905.84;;;34.83;49.55
74230;BME280;62589;12.568;99.958;2024-02-23T12:31:31;100906.66;;;34.84;49.47
74230;BME280;62589;12.568;99.958;2024-02-23T12:33:58;100901.47;;;34.82;49.73
74230;BME280;62589;12.568;99.958;2024-02-23T12:36:24;100913.03;;;34.84;49.73
74230;BME280;62589;12.568;99.958;2024-02-23T12:38:51;100913.03;;;34.84;49.92